createdAt,value
2019-02-14T00:00:20.513Z,5.83
2019-02-14T00:02:49.225Z,5.77
2019-02-14T00:05:18.057Z,5.00
2019-02-14T00:07:46.663Z,4.53
2019-02-14T00:10:15.188Z,5.37
2019-02-14T00:12:43.863Z,5.77
2019-02-14T00:15:13.866Z,5.60
2019-02-14T00:17:42.522Z,7.07
2019-02-14T00:20:11.356Z,5.00
2019-02-14T00:22:40.095Z,5.13
2019-02-14T00:25:08.759Z,4.33
2019-02-14T00:27:37.292Z,4.47
2019-02-14T00:30:08.588Z,6.60
2019-02-14T00:32:38.336Z,5.03
2019-02-14T00:35:08.465Z,5.50
2019-02-14T00:37:37.178Z,5.23
2019-02-14T00:40:09.304Z,4.97
2019-02-14T00:42:39.629Z,5.43
2019-02-14T00:45:08.727Z,6.17
2019-02-14T00:47:38.698Z,5.30
2019-02-14T00:50:08.441Z,5.70
2019-02-14T00:52:37.231Z,5.73
2019-02-14T00:55:08.254Z,5.57
2019-02-14T00:57:36.926Z,5.20
2019-02-14T01:00:07.511Z,5.30
2019-02-14T01:02:37.890Z,5.43
2019-02-14T01:05:07.662Z,4.80
2019-02-14T01:07:37.647Z,5.37
2019-02-14T01:10:07.039Z,5.03
2019-02-14T01:12:35.595Z,6.33
2019-02-14T01:15:09.080Z,6.00
2019-02-14T01:17:39.382Z,4.93
2019-02-14T01:20:08.005Z,5.33
2019-02-14T01:22:36.631Z,5.17
2019-02-14T01:25:06.958Z,4.47
2019-02-14T01:27:39.725Z,4.37
2019-02-14T01:30:13.035Z,5.33
2019-02-14T01:32:43.182Z,5.27
2019-02-14T01:35:12.075Z,5.67
2019-02-14T01:37:40.650Z,4.97
2019-02-14T01:40:09.463Z,5.30
2019-02-14T01:42:38.216Z,6.10
2019-02-14T01:45:11.488Z,4.77
2019-02-14T01:47:41.586Z,5.70
2019-02-14T01:50:11.401Z,5.40
2019-02-14T01:52:39.950Z,5.03
2019-02-14T01:55:09.880Z,5.00
2019-02-14T01:57:38.442Z,5.07
2019-02-14T02:00:13.802Z,4.90
2019-02-14T02:02:42.367Z,5.53
2019-02-14T02:05:15.196Z,6.47
2019-02-14T02:07:45.335Z,4.70
2019-02-14T02:10:14.135Z,5.40
2019-02-14T02:12:46.772Z,5.40
2019-02-14T02:15:15.906Z,5.40
2019-02-14T02:17:44.542Z,4.37
2019-02-14T02:20:14.682Z,6.03
2019-02-14T02:22:43.304Z,5.23
2019-02-14T02:25:15.502Z,6.93
2019-02-14T02:27:46.231Z,5.17
2019-02-14T02:30:16.162Z,4.40
2019-02-14T02:32:46.256Z,5.93
2019-02-14T02:35:16.390Z,4.87
2019-02-14T02:37:44.993Z,4.17
2019-02-14T02:40:18.591Z,5.20
2019-02-14T02:42:47.002Z,6.30
2019-02-14T02:45:17.447Z,5.23
2019-02-14T02:47:46.060Z,4.20
2019-02-14T02:50:14.756Z,5.90
2019-02-14T02:52:43.482Z,4.93
2019-02-14T02:55:13.679Z,4.70
2019-02-14T02:57:43.622Z,6.10
2019-02-14T03:00:15.093Z,6.30
2019-02-14T03:02:44.305Z,4.50
2019-02-14T03:05:15.407Z,4.60
2019-02-14T03:07:44.082Z,5.60
2019-02-14T03:10:13.963Z,5.43
2019-02-14T03:12:43.940Z,5.57
2019-02-14T03:15:14.494Z,4.53
2019-02-14T03:17:46.272Z,4.67
2019-02-14T03:20:17.986Z,4.90
2019-02-14T03:22:48.893Z,4.80
2019-02-14T03:25:20.984Z,5.07
2019-02-14T03:27:49.649Z,5.20
2019-02-14T03:30:18.339Z,5.97
2019-02-14T03:32:46.899Z,4.57
2019-02-14T03:35:15.519Z,5.47
2019-02-14T03:37:44.102Z,4.60
2019-02-14T03:40:13.880Z,6.57
2019-02-14T03:42:43.186Z,5.17
2019-02-14T03:45:17.296Z,5.97
2019-02-14T03:47:45.982Z,5.17
2019-02-14T03:50:19.866Z,4.97
2019-02-14T03:52:48.476Z,4.80
2019-02-14T03:55:17.186Z,5.30
2019-02-14T03:57:45.795Z,4.97
2019-02-14T04:00:16.201Z,5.10
2019-02-14T04:02:44.928Z,5.53
2019-02-14T04:05:13.612Z,6.03
2019-02-14T04:07:42.261Z,4.90
2019-02-14T04:10:13.613Z,5.93
2019-02-14T04:12:42.262Z,5.13
2019-02-14T04:15:16.207Z,5.47
2019-02-14T04:17:44.688Z,5.40
2019-02-14T04:20:13.695Z,6.20
2019-02-14T04:22:42.248Z,6.07
2019-02-14T04:25:11.264Z,5.57
2019-02-14T04:27:39.802Z,5.03
2019-02-14T04:30:13.311Z,6.13
2019-02-14T04:32:41.984Z,5.17
2019-02-14T04:35:10.770Z,4.50
2019-02-14T04:37:39.393Z,5.87
2019-02-14T04:40:12.981Z,5.17
2019-02-14T04:42:41.659Z,4.83
2019-02-14T04:45:13.049Z,5.73
2019-02-14T04:47:41.934Z,5.43
2019-02-14T04:50:11.616Z,6.90
2019-02-14T04:52:40.306Z,5.97
2019-02-14T04:55:10.419Z,7.13
2019-02-14T04:57:38.977Z,6.27
2019-02-14T05:00:12.439Z,5.50
2019-02-14T05:02:41.012Z,6.27
2019-02-14T05:05:10.328Z,5.83
2019-02-14T05:07:39.015Z,5.67
2019-02-14T05:10:11.904Z,5.37
2019-02-14T05:12:40.512Z,5.73
2019-02-14T05:15:10.710Z,5.73
2019-02-14T05:17:39.328Z,6.10
2019-02-14T05:20:09.912Z,6.83
2019-02-14T05:22:38.472Z,5.90
2019-02-14T05:25:08.622Z,5.90
2019-02-14T05:27:37.269Z,5.77
2019-02-14T05:30:16.715Z,6.47
2019-02-14T05:32:45.339Z,5.37
2019-02-14T05:35:19.264Z,6.77
2019-02-14T05:37:47.803Z,5.80
2019-02-14T05:40:19.057Z,5.93
2019-02-14T05:42:47.797Z,5.60
2019-02-14T05:45:16.624Z,5.70
2019-02-14T05:47:45.176Z,6.30
2019-02-14T05:50:15.128Z,6.07
2019-02-14T05:52:43.754Z,5.67
2019-02-14T05:55:15.395Z,6.50
2019-02-14T05:57:44.019Z,5.67
2019-02-14T06:00:18.130Z,5.67
2019-02-14T06:02:46.611Z,7.63
2019-02-14T06:05:18.068Z,6.00
2019-02-14T06:07:46.557Z,6.50
2019-02-14T06:10:15.122Z,5.97
2019-02-14T06:12:44.896Z,6.40
2019-02-14T06:15:14.010Z,6.40
2019-02-14T06:17:45.417Z,5.43
2019-02-14T06:20:14.187Z,6.23
2019-02-14T06:22:43.714Z,5.30
2019-02-14T06:25:13.434Z,7.60
2019-02-14T06:27:45.176Z,6.13
2019-02-14T06:30:14.994Z,6.43
2019-02-14T06:32:45.965Z,6.13
2019-02-14T06:35:14.658Z,8.07
2019-02-14T06:37:43.164Z,6.47
2019-02-14T06:40:13.247Z,6.20
2019-02-14T06:42:41.857Z,5.50
2019-02-14T06:45:15.739Z,6.00
2019-02-14T06:47:44.364Z,6.47
2019-02-14T06:50:13.194Z,5.70
2019-02-14T06:52:41.819Z,6.37
2019-02-14T06:55:12.779Z,6.23
2019-02-14T06:57:41.584Z,6.23
2019-02-14T07:00:13.152Z,6.90
2019-02-14T07:02:41.688Z,6.23
2019-02-14T07:05:10.882Z,7.23
2019-02-14T07:07:40.079Z,6.53
2019-02-14T07:10:10.949Z,6.73
2019-02-14T07:12:39.547Z,5.73
2019-02-14T07:15:17.393Z,6.53
2019-02-14T07:17:45.647Z,7.73
2019-02-14T07:20:17.206Z,6.63
2019-02-14T07:22:47.289Z,6.00
2019-02-14T07:25:15.910Z,6.47
2019-02-14T07:27:44.717Z,5.87
2019-02-14T07:30:24.688Z,6.43
2019-02-14T07:32:54.513Z,6.43
2019-02-14T07:35:25.258Z,6.77
2019-02-14T07:37:53.695Z,7.30
2019-02-14T07:40:22.364Z,5.90
2019-02-14T07:42:53.744Z,6.33
2019-02-14T07:45:22.355Z,6.57
2019-02-14T07:47:50.895Z,6.60
2019-02-14T07:50:19.383Z,8.33
2019-02-14T07:52:48.083Z,7.10
2019-02-14T07:55:17.338Z,6.60
2019-02-14T07:57:47.870Z,7.40
2019-02-14T08:00:18.053Z,7.53
2019-02-14T08:02:46.672Z,6.90
2019-02-14T08:05:15.296Z,5.93
2019-02-14T08:07:43.982Z,6.73
2019-02-14T08:10:15.306Z,7.10
2019-02-14T08:12:43.983Z,6.33
2019-02-14T08:15:14.538Z,6.43
2019-02-14T08:17:43.159Z,7.20
2019-02-14T08:20:17.383Z,6.70
2019-02-14T08:22:46.062Z,6.40
2019-02-14T08:25:14.746Z,6.13
2019-02-14T08:27:43.291Z,6.90
2019-02-14T08:30:14.363Z,7.30
2019-02-14T08:32:42.999Z,7.27
2019-02-14T08:35:11.656Z,6.70
2019-02-14T08:37:45.499Z,6.53
2019-02-14T08:40:16.125Z,7.90
2019-02-14T08:42:44.819Z,6.43
2019-02-14T08:45:13.522Z,7.70
2019-02-14T08:47:42.101Z,7.07
2019-02-14T08:50:11.402Z,7.60
2019-02-14T08:52:39.944Z,6.73
2019-02-14T08:55:29.280Z,6.40
2019-02-14T08:57:57.829Z,7.63
2019-02-14T09:00:26.666Z,6.17
2019-02-14T09:02:55.374Z,7.60
2019-02-14T09:05:24.070Z,6.70
2019-02-14T09:07:54.942Z,6.73
2019-02-14T09:10:23.115Z,7.00
2019-02-14T09:12:51.598Z,7.27
2019-02-14T09:15:20.243Z,6.60
2019-02-14T09:17:48.847Z,6.03
2019-02-14T09:20:21.569Z,7.00
2019-02-14T09:22:50.190Z,7.23
2019-02-14T09:25:18.842Z,6.57
2019-02-14T09:27:47.531Z,6.10
2019-02-14T09:30:16.666Z,7.47
2019-02-14T09:32:47.083Z,5.83
2019-02-14T09:35:15.642Z,6.40
2019-02-14T09:37:46.952Z,6.40
2019-02-14T09:40:19.610Z,7.07
2019-02-14T09:42:48.184Z,6.13
2019-02-14T09:45:17.831Z,6.17
2019-02-14T09:47:46.574Z,6.60
2019-02-14T09:50:15.753Z,7.53
2019-02-14T09:52:48.915Z,6.70
2019-02-14T09:55:18.864Z,5.83
2019-02-14T09:57:52.534Z,5.67
2019-02-14T10:00:21.795Z,6.67
2019-02-14T10:02:50.437Z,5.97
2019-02-14T10:05:19.112Z,5.53
2019-02-14T10:07:48.979Z,7.43
2019-02-14T10:10:24.385Z,7.27
2019-02-14T10:12:52.962Z,6.50
2019-02-14T10:15:21.620Z,6.13
2019-02-14T10:17:50.290Z,5.97
2019-02-14T10:20:19.027Z,6.40
2019-02-14T10:22:47.598Z,6.50
2019-02-14T10:25:16.283Z,6.63
2019-02-14T10:27:44.972Z,5.73
2019-02-14T10:30:21.340Z,5.33
2019-02-14T10:32:54.428Z,6.00
2019-02-14T10:35:23.042Z,6.00
2019-02-14T10:37:51.759Z,6.50
2019-02-14T10:40:20.375Z,5.90
2019-02-14T10:42:48.926Z,5.40
2019-02-14T10:45:19.794Z,6.77
2019-02-14T10:47:48.353Z,6.23
2019-02-14T10:50:17.024Z,6.13
2019-02-14T10:52:45.728Z,6.20
2019-02-14T10:55:17.589Z,5.00
2019-02-14T10:57:46.225Z,6.40
2019-02-14T11:00:25.946Z,6.13
2019-02-14T11:02:54.645Z,6.00
2019-02-14T11:05:23.431Z,5.57
2019-02-14T11:07:52.729Z,5.87
2019-02-14T11:10:24.210Z,5.50
2019-02-14T11:12:52.863Z,5.33
2019-02-14T11:15:24.547Z,5.37
2019-02-14T11:17:53.172Z,5.87
2019-02-14T11:20:24.747Z,5.43
2019-02-14T11:22:53.517Z,5.63
2019-02-14T11:25:34.563Z,5.97
2019-02-14T11:28:03.271Z,5.50
2019-02-14T11:30:31.903Z,5.53
2019-02-14T11:33:00.578Z,4.80
2019-02-14T11:35:29.223Z,5.37
2019-02-14T11:37:57.832Z,5.07
2019-02-14T11:40:26.546Z,7.00
2019-02-14T11:42:57.221Z,5.80
2019-02-14T11:45:26.132Z,4.37
2019-02-14T11:47:55.565Z,4.70
2019-02-14T11:50:24.460Z,5.47
2019-02-14T11:52:53.171Z,6.73
2019-02-14T11:55:21.974Z,5.20
2019-02-14T11:57:50.569Z,5.70
2019-02-14T12:00:23.273Z,6.70
2019-02-14T12:02:55.663Z,5.40
2019-02-14T12:05:22.305Z,4.83
2019-02-14T12:07:51.120Z,5.90
2019-02-14T12:10:19.927Z,5.70
2019-02-14T12:12:48.489Z,4.07
2019-02-14T12:15:17.158Z,5.67
2019-02-14T12:17:45.719Z,4.43
2019-02-14T12:20:15.627Z,5.63
2019-02-14T12:22:46.749Z,5.33
2019-02-14T12:25:17.645Z,4.77
2019-02-14T12:27:46.275Z,5.20
2019-02-14T12:30:15.770Z,4.97
2019-02-14T12:32:44.500Z,5.90
2019-02-14T12:35:13.248Z,6.13
2019-02-14T12:37:41.787Z,6.13
2019-02-14T12:40:12.030Z,4.90
2019-02-14T12:42:40.667Z,5.67
2019-02-14T12:45:20.222Z,5.50
2019-02-14T12:47:42.767Z,5.33
2019-02-14T12:50:11.421Z,5.03
2019-02-14T12:52:40.007Z,4.23
2019-02-14T12:55:08.651Z,5.10
2019-02-14T12:57:37.290Z,5.73
2019-02-14T13:00:23.311Z,4.60
2019-02-14T13:02:51.995Z,4.87
2019-02-14T13:05:20.678Z,4.57
2019-02-14T13:07:49.239Z,5.47
2019-02-14T13:10:18.843Z,5.60
2019-02-14T13:12:47.608Z,4.60
2019-02-14T13:15:19.264Z,4.40
2019-02-14T13:17:47.936Z,5.40
2019-02-14T13:20:17.845Z,4.90
2019-02-14T13:22:46.559Z,5.17
2019-02-14T13:25:15.412Z,5.63
2019-02-14T13:27:43.927Z,6.40
2019-02-14T13:30:15.675Z,4.27
2019-02-14T13:32:44.283Z,4.70
2019-02-14T13:35:13.145Z,4.30
2019-02-14T13:37:41.730Z,3.60
2019-02-14T13:40:10.926Z,4.53
2019-02-14T13:42:39.567Z,3.87
2019-02-14T13:45:13.974Z,4.17
2019-02-14T13:47:42.577Z,4.17
2019-02-14T13:50:12.594Z,4.70
2019-02-14T13:52:41.150Z,4.83
2019-02-14T13:55:10.658Z,5.33
2019-02-14T13:57:39.291Z,4.13
2019-02-14T14:00:10.931Z,4.73
2019-02-14T14:02:39.646Z,4.37
2019-02-14T14:05:08.324Z,4.70
2019-02-14T14:07:40.303Z,4.57
2019-02-14T14:10:09.219Z,5.03
2019-02-14T14:12:37.859Z,4.30
2019-02-14T14:15:10.878Z,4.93
2019-02-14T14:17:39.458Z,5.73
2019-02-14T14:20:09.208Z,6.10
2019-02-14T14:22:37.905Z,6.27
2019-02-14T14:25:11.327Z,5.00
2019-02-14T14:27:39.858Z,6.03
2019-02-14T14:30:11.132Z,5.23
2019-02-14T14:32:39.827Z,4.60
2019-02-14T14:35:11.058Z,4.50
2019-02-14T14:37:40.053Z,4.47
2019-02-14T14:40:14.819Z,5.43
2019-02-14T14:42:51.062Z,4.87
2019-02-14T14:45:22.484Z,4.80
2019-02-14T14:47:50.941Z,5.37
2019-02-14T14:50:19.523Z,5.20
2019-02-14T14:52:48.160Z,6.20
2019-02-14T14:55:16.692Z,6.33
2019-02-14T14:57:45.264Z,5.17
2019-02-14T15:00:14.189Z,5.00
2019-02-14T15:02:42.854Z,5.07
2019-02-14T15:05:11.455Z,5.63
2019-02-14T15:07:40.147Z,5.13
2019-02-14T15:10:08.751Z,6.60
2019-02-14T15:12:37.380Z,5.27
2019-02-14T15:15:07.563Z,4.33
2019-02-14T15:17:36.170Z,5.50
2019-02-14T15:20:07.630Z,6.10
2019-02-14T15:22:37.477Z,4.23
2019-02-14T15:25:06.972Z,5.10
2019-02-14T15:27:35.601Z,5.73
2019-02-14T15:30:04.815Z,5.33
2019-02-14T15:32:33.675Z,4.67
2019-02-14T15:35:02.302Z,6.10
2019-02-14T15:37:30.860Z,4.20
2019-02-14T15:40:08.841Z,5.27
2019-02-14T15:42:29.901Z,5.33
2019-02-14T15:44:58.506Z,5.43
2019-02-14T15:47:27.051Z,5.20
2019-02-14T15:49:55.543Z,5.07
2019-02-14T15:52:24.025Z,5.20
2019-02-14T15:54:52.606Z,5.47
2019-02-14T15:57:21.253Z,5.60
2019-02-14T15:59:49.879Z,6.90
2019-02-14T16:02:18.724Z,5.30
2019-02-14T16:04:47.304Z,6.00
2019-02-14T16:07:17.508Z,5.10
2019-02-14T16:09:46.292Z,5.33
2019-02-14T16:12:14.951Z,5.17
2019-02-14T16:14:44.818Z,4.37
2019-02-14T16:17:13.811Z,4.80
2019-02-14T16:19:42.666Z,6.17
2019-02-14T16:22:11.290Z,5.00
2019-02-14T16:24:41.247Z,5.23
2019-02-14T16:27:10.335Z,5.70
2019-02-14T16:29:38.991Z,4.70
2019-02-14T16:32:07.644Z,5.30
2019-02-14T16:34:36.273Z,5.27
2019-02-14T16:37:06.052Z,4.93
2019-02-14T16:39:34.821Z,4.83
2019-02-14T16:42:05.186Z,5.23
2019-02-14T16:44:33.853Z,6.33
2019-02-14T16:47:02.465Z,4.97
2019-02-14T16:49:34.769Z,4.97
2019-02-14T16:52:06.872Z,5.93
2019-02-14T16:54:36.753Z,5.50
2019-02-14T16:57:05.388Z,5.70
2019-02-14T16:59:35.320Z,4.80
2019-02-14T17:02:03.964Z,4.60
2019-02-14T17:04:34.147Z,4.80
2019-02-14T17:07:03.999Z,6.50
2019-02-14T17:09:32.614Z,4.73
2019-02-14T17:12:02.202Z,6.33
2019-02-14T17:14:30.815Z,4.73
2019-02-14T17:17:00.281Z,5.23
2019-02-14T17:19:29.111Z,4.83
2019-02-14T17:21:58.824Z,5.17
2019-02-14T17:24:27.791Z,5.30
2019-02-14T17:26:59.117Z,6.00
2019-02-14T17:29:27.744Z,5.10
2019-02-14T17:31:56.431Z,4.93
2019-02-14T17:34:26.236Z,5.57
2019-02-14T17:36:54.859Z,6.13
2019-02-14T17:39:25.178Z,5.37
2019-02-14T17:41:53.891Z,5.17
2019-02-14T17:44:23.147Z,5.27
2019-02-14T17:46:51.629Z,4.77
2019-02-14T17:49:22.479Z,5.40
2019-02-14T17:51:51.093Z,5.90
2019-02-14T17:54:21.002Z,5.20
2019-02-14T17:56:49.614Z,5.67
2019-02-14T17:59:18.158Z,5.60
2019-02-14T18:01:46.791Z,5.30
2019-02-14T18:04:15.354Z,6.43
2019-02-14T18:06:43.959Z,5.23
2019-02-14T18:09:18.223Z,6.47
2019-02-14T18:11:49.859Z,7.10
2019-02-14T18:14:18.403Z,5.80
2019-02-14T18:16:46.887Z,6.20
2019-02-14T18:19:15.616Z,6.40
2019-02-14T18:21:44.266Z,5.90
2019-02-14T18:24:14.338Z,5.53
2019-02-14T18:26:42.832Z,6.40
2019-02-14T18:29:11.527Z,7.00
2019-02-14T18:31:40.256Z,6.20
2019-02-14T18:34:11.943Z,6.53
2019-02-14T18:36:41.365Z,5.40
2019-02-14T18:39:11.804Z,6.97
2019-02-14T18:41:41.976Z,5.53
2019-02-14T18:44:10.685Z,6.60
2019-02-14T18:46:39.306Z,5.03
2019-02-14T18:49:08.100Z,6.43
2019-02-14T18:51:36.591Z,6.70
2019-02-14T18:54:05.127Z,6.17
2019-02-14T18:56:33.847Z,7.40
2019-02-14T18:59:03.994Z,5.90
2019-02-14T19:01:35.322Z,5.23
2019-02-14T19:04:03.896Z,6.30
2019-02-14T19:06:34.043Z,6.17
2019-02-14T19:09:02.717Z,6.70
2019-02-14T19:11:31.370Z,7.57
2019-02-14T19:13:59.987Z,6.27
2019-02-14T19:16:28.542Z,6.80
2019-02-14T19:18:58.729Z,6.07
2019-02-14T19:21:27.501Z,7.37
2019-02-14T19:23:56.054Z,7.37
2019-02-14T19:26:24.622Z,6.77
2019-02-14T19:28:53.207Z,5.90
2019-02-14T19:31:21.835Z,6.03
2019-02-14T19:33:52.068Z,6.30
2019-02-14T19:36:20.633Z,7.07
2019-02-14T19:38:49.317Z,6.77
2019-02-14T19:41:25.137Z,6.73
2019-02-14T19:43:48.223Z,6.40
2019-02-14T19:46:16.932Z,6.17
2019-02-14T19:48:45.559Z,7.80
2019-02-14T19:51:14.097Z,6.67
2019-02-14T19:53:42.666Z,6.60
2019-02-14T19:56:11.287Z,5.80
2019-02-14T19:58:39.929Z,6.90
2019-02-14T20:01:08.687Z,5.77
2019-02-14T20:03:37.218Z,6.47
2019-02-14T20:06:05.754Z,6.40
2019-02-14T20:08:34.453Z,6.73
2019-02-14T20:11:02.915Z,6.30
2019-02-14T20:13:31.529Z,6.80
2019-02-14T20:16:00.170Z,6.67
2019-02-14T20:24:22.893Z,6.37
2019-02-14T20:26:53.861Z,6.27
2019-02-14T20:29:22.500Z,6.87
2019-02-14T20:31:51.122Z,6.47
2019-02-14T20:34:19.578Z,6.20
2019-02-14T20:36:48.136Z,7.50
2019-02-14T20:39:16.827Z,6.70
2019-02-14T20:41:46.608Z,7.40
2019-02-14T20:44:15.378Z,6.90
2019-02-14T20:46:44.017Z,6.67
2019-02-14T20:49:12.579Z,7.80
2019-02-14T20:51:41.257Z,5.83
2019-02-14T20:54:09.981Z,6.67
2019-02-14T20:56:38.594Z,6.83
2019-02-14T20:59:07.302Z,6.33
2019-02-14T21:01:55.262Z,7.67
2019-02-14T21:04:23.971Z,5.93
2019-02-14T21:06:52.651Z,7.37
2019-02-14T21:09:21.345Z,6.97
2019-02-14T21:11:54.748Z,8.20
2019-02-14T21:14:20.374Z,6.80
2019-02-14T21:16:49.898Z,6.03
2019-02-14T21:19:18.456Z,7.37
2019-02-14T21:21:47.145Z,7.20
2019-02-14T21:24:15.787Z,7.07
2019-02-14T21:26:44.442Z,6.93
2019-02-14T21:29:13.061Z,7.60
2019-02-14T21:31:41.718Z,7.60
2019-02-14T21:34:10.386Z,7.77
2019-02-14T21:36:39.029Z,6.93
2019-02-14T21:39:07.750Z,8.67
2019-02-14T21:41:36.467Z,8.33
2019-02-14T21:44:05.098Z,7.93
2019-02-14T21:46:33.718Z,8.07
2019-02-14T21:49:02.266Z,8.13
2019-02-14T21:51:30.986Z,9.63
2019-02-14T21:53:59.706Z,8.73
2019-02-14T21:56:28.390Z,9.10
2019-02-14T21:58:57.034Z,8.40
2019-02-14T22:01:26.989Z,8.40
2019-02-14T22:03:55.614Z,8.37
2019-02-14T22:06:24.244Z,9.33
2019-02-14T22:08:52.811Z,7.73
2019-02-14T22:11:21.421Z,7.93
2019-02-14T22:13:50.048Z,9.00
2019-02-14T22:16:18.675Z,9.80
2019-02-14T22:18:47.479Z,7.97
2019-02-14T22:21:16.146Z,8.00
2019-02-14T22:23:44.743Z,8.70
2019-02-14T22:26:13.368Z,8.23
2019-02-14T22:28:41.875Z,10.00
2019-02-14T22:31:10.427Z,9.10
2019-02-14T22:33:39.067Z,8.53
2019-02-14T22:36:07.675Z,8.67
2019-02-14T22:38:36.241Z,8.70
2019-02-14T22:41:04.957Z,9.20
2019-02-14T22:43:33.820Z,9.00
2019-02-14T22:46:02.432Z,8.37
2019-02-14T22:48:31.131Z,8.97
2019-02-14T22:50:59.702Z,10.03
2019-02-14T22:53:28.416Z,10.17
2019-02-14T22:55:57.133Z,10.03
2019-02-14T22:58:25.766Z,8.57
2019-02-14T23:00:56.879Z,8.77
2019-02-14T23:03:25.807Z,8.50
2019-02-14T23:05:54.419Z,10.30
2019-02-14T23:08:23.043Z,9.17
2019-02-14T23:10:51.763Z,8.63
2019-02-14T23:13:20.428Z,8.80
2019-02-14T23:15:49.099Z,10.30
2019-02-14T23:18:17.655Z,9.10
2019-02-14T23:20:46.290Z,8.53
2019-02-14T23:23:14.862Z,9.37
2019-02-14T23:25:43.489Z,8.10
2019-02-14T23:28:12.247Z,7.90
2019-02-14T23:30:40.947Z,9.43
2019-02-14T23:33:09.480Z,9.93
2019-02-14T23:35:38.219Z,8.37
2019-02-14T23:38:06.888Z,9.27
2019-02-14T23:40:35.497Z,9.30
2019-02-14T23:43:04.923Z,7.73
2019-02-14T23:45:33.930Z,8.43
2019-02-14T23:48:02.539Z,7.40
2019-02-14T23:50:31.119Z,9.87
2019-02-14T23:52:59.743Z,7.63
2019-02-14T23:55:28.397Z,8.77
2019-02-14T23:57:57.167Z,8.90
